sensor_id;sensor_type;location;lat;lon;timestamp;P1;durP1;ratioP1;P2;durP2;ratioP2
17921;SDS011;9086;50.966;3.144;2023-04-24T00:04:38;83.37;;;79.87;;
17921;SDS011;9086;50.966;3.144;2023-04-24T00:07:10;79.87;;;76.70;;
17921;SDS011;9086;50.966;3.144;2023-04-24T00:09:36;78.37;;;75.13;;
17921;SDS011;9086;50.966;3.144;2023-04-24T00:12:02;75.13;;;72.07;;
17921;SDS011;9086;50.966;3.144;2023-04-24T00:14:31;69.33;;;66.57;;
17921;SDS011;9086;50.966;3.144;2023-04-24T00:16:57;62.97;;;60.37;;
17921;SDS011;9086;50.966;3.144;2023-04-24T00:19:23;67.27;;;64.50;;
17921;SDS011;9086;50.966;3.144;2023-04-24T00:21:49;60.30;;;57.73;;
17921;SDS011;9086;50.966;3.144;2023-04-24T00:24:16;61.20;;;58.70;;
17921;SDS011;9086;50.966;3.144;2023-04-24T00:26:42;57.03;;;54.77;;
17921;SDS011;9086;50.966;3.144;2023-04-24T00:29:08;55.60;;;53.30;;
17921;SDS011;9086;50.966;3.144;2023-04-24T00:31:34;58.73;;;56.40;;
17921;SDS011;9086;50.966;3.144;2023-04-24T00:34:01;58.30;;;55.80;;
17921;SDS011;9086;50.966;3.144;2023-04-24T00:36:27;56.93;;;54.43;;
17921;SDS011;9086;50.966;3.144;2023-04-24T00:38:53;60.07;;;57.60;;
17921;SDS011;9086;50.966;3.144;2023-04-24T00:41:20;59.13;;;56.67;;
17921;SDS011;9086;50.966;3.144;2023-04-24T00:43:47;58.17;;;55.57;;
17921;SDS011;9086;50.966;3.144;2023-04-24T00:46:13;66.13;;;63.37;;
17921;SDS011;9086;50.966;3.144;2023-04-24T00:48:39;71.47;;;68.40;;
17921;SDS011;9086;50.966;3.144;2023-04-24T00:51:05;76.23;;;72.90;;
17921;SDS011;9086;50.966;3.144;2023-04-24T00:53:31;78.37;;;74.23;;
17921;SDS011;9086;50.966;3.144;2023-04-24T00:55:58;88.63;;;84.77;;
17921;SDS011;9086;50.966;3.144;2023-04-24T00:58:24;88.63;;;84.67;;
17921;SDS011;9086;50.966;3.144;2023-04-24T01:00:50;106.63;;;102.00;;
17921;SDS011;9086;50.966;3.144;2023-04-24T01:03:19;122.93;;;117.93;;
17921;SDS011;9086;50.966;3.144;2023-04-24T01:05:46;127.50;;;122.50;;
17921;SDS011;9086;50.966;3.144;2023-04-24T01:08:12;133.77;;;128.37;;
17921;SDS011;9086;50.966;3.144;2023-04-24T01:10:39;121.77;;;116.87;;
17921;SDS011;9086;50.966;3.144;2023-04-24T01:13:07;142.77;;;137.07;;
17921;SDS011;9086;50.966;3.144;2023-04-24T01:15:36;143.30;;;137.57;;
17921;SDS011;9086;50.966;3.144;2023-04-24T01:18:02;167.40;;;161.03;;
17921;SDS011;9086;50.966;3.144;2023-04-24T01:20:28;154.83;;;148.47;;
17921;SDS011;9086;50.966;3.144;2023-04-24T01:22:55;149.73;;;143.93;;
17921;SDS011;9086;50.966;3.144;2023-04-24T01:25:21;153.67;;;147.90;;
17921;SDS011;9086;50.966;3.144;2023-04-24T01:27:48;173.90;;;167.43;;
17921;SDS011;9086;50.966;3.144;2023-04-24T01:30:14;173.83;;;167.37;;
17921;SDS011;9086;50.966;3.144;2023-04-24T01:32:40;184.07;;;177.60;;
17921;SDS011;9086;50.966;3.144;2023-04-24T01:35:09;178.60;;;172.27;;
17921;SDS011;9086;50.966;3.144;2023-04-24T01:37:40;197.33;;;190.20;;
17921;SDS011;9086;50.966;3.144;2023-04-24T01:40:06;198.23;;;191.13;;
17921;SDS011;9086;50.966;3.144;2023-04-24T01:42:32;214.37;;;206.80;;
17921;SDS011;9086;50.966;3.144;2023-04-24T01:44:58;214.60;;;206.90;;
17921;SDS011;9086;50.966;3.144;2023-04-24T01:47:28;201.37;;;193.90;;
17921;SDS011;9086;50.966;3.144;2023-04-24T01:50:00;228.90;;;221.03;;
17921;SDS011;9086;50.966;3.144;2023-04-24T01:52:30;229.07;;;221.20;;
17921;SDS011;9086;50.966;3.144;2023-04-24T01:55:01;240.83;;;232.43;;
17921;SDS011;9086;50.966;3.144;2023-04-24T01:57:36;259.17;;;250.60;;
17921;SDS011;9086;50.966;3.144;2023-04-24T02:00:05;282.13;;;272.60;;
17921;SDS011;9086;50.966;3.144;2023-04-24T02:02:32;301.90;;;291.27;;
17921;SDS011;9086;50.966;3.144;2023-04-24T02:04:58;316.23;;;305.70;;
17921;SDS011;9086;50.966;3.144;2023-04-24T02:07:24;315.77;;;305.53;;
17921;SDS011;9086;50.966;3.144;2023-04-24T02:09:50;341.23;;;330.00;;
17921;SDS011;9086;50.966;3.144;2023-04-24T02:12:16;333.07;;;322.10;;
17921;SDS011;9086;50.966;3.144;2023-04-24T02:14:42;340.40;;;329.43;;
17921;SDS011;9086;50.966;3.144;2023-04-24T02:17:13;334.57;;;323.70;;
17921;SDS011;9086;50.966;3.144;2023-04-24T02:19:40;355.90;;;344.17;;
17921;SDS011;9086;50.966;3.144;2023-04-24T02:22:06;357.83;;;346.67;;
17921;SDS011;9086;50.966;3.144;2023-04-24T02:24:32;332.73;;;321.87;;
17921;SDS011;9086;50.966;3.144;2023-04-24T02:27:07;331.73;;;321.07;;
17921;SDS011;9086;50.966;3.144;2023-04-24T02:29:33;338.07;;;327.43;;
17921;SDS011;9086;50.966;3.144;2023-04-24T02:31:59;358.57;;;347.07;;
17921;SDS011;9086;50.966;3.144;2023-04-24T02:34:25;344.07;;;333.20;;
17921;SDS011;9086;50.966;3.144;2023-04-24T02:36:51;367.87;;;355.83;;
17921;SDS011;9086;50.966;3.144;2023-04-24T02:39:28;359.13;;;347.40;;
17921;SDS011;9086;50.966;3.144;2023-04-24T02:41:54;372.37;;;359.80;;
17921;SDS011;9086;50.966;3.144;2023-04-24T02:44:34;380.43;;;367.43;;
17921;SDS011;9086;50.966;3.144;2023-04-24T02:47:00;377.80;;;364.73;;
17921;SDS011;9086;50.966;3.144;2023-04-24T02:49:29;356.60;;;344.70;;
17921;SDS011;9086;50.966;3.144;2023-04-24T02:51:55;361.43;;;349.43;;
17921;SDS011;9086;50.966;3.144;2023-04-24T02:54:21;386.90;;;373.40;;
17921;SDS011;9086;50.966;3.144;2023-04-24T02:56:49;382.60;;;369.70;;
17921;SDS011;9086;50.966;3.144;2023-04-24T02:59:15;381.37;;;368.10;;
17921;SDS011;9086;50.966;3.144;2023-04-24T03:01:44;363.00;;;350.17;;
17921;SDS011;9086;50.966;3.144;2023-04-24T03:04:12;357.93;;;345.77;;
17921;SDS011;9086;50.966;3.144;2023-04-24T03:06:45;373.80;;;360.67;;
17921;SDS011;9086;50.966;3.144;2023-04-24T03:09:11;364.67;;;351.70;;
17921;SDS011;9086;50.966;3.144;2023-04-24T03:11:37;355.90;;;343.73;;
17921;SDS011;9086;50.966;3.144;2023-04-24T03:14:05;371.23;;;358.37;;
17921;SDS011;9086;50.966;3.144;2023-04-24T03:16:41;387.20;;;374.00;;
17921;SDS011;9086;50.966;3.144;2023-04-24T03:19:07;379.10;;;365.97;;
17921;SDS011;9086;50.966;3.144;2023-04-24T03:21:33;378.57;;;365.60;;
17921;SDS011;9086;50.966;3.144;2023-04-24T03:24:00;371.60;;;358.87;;
17921;SDS011;9086;50.966;3.144;2023-04-24T03:26:27;378.23;;;365.43;;
17921;SDS011;9086;50.966;3.144;2023-04-24T03:28:53;359.47;;;347.20;;
17921;SDS011;9086;50.966;3.144;2023-04-24T03:31:21;359.83;;;347.77;;
17921;SDS011;9086;50.966;3.144;2023-04-24T03:33:50;353.97;;;341.97;;
17921;SDS011;9086;50.966;3.144;2023-04-24T03:36:16;333.63;;;322.37;;
17921;SDS011;9086;50.966;3.144;2023-04-24T03:38:45;332.67;;;321.30;;
17921;SDS011;9086;50.966;3.144;2023-04-24T03:41:11;327.30;;;316.03;;
17921;SDS011;9086;50.966;3.144;2023-04-24T03:43:39;313.67;;;302.97;;
17921;SDS011;9086;50.966;3.144;2023-04-24T03:46:05;299.27;;;289.07;;
17921;SDS011;9086;50.966;3.144;2023-04-24T03:48:34;283.07;;;273.30;;
17921;SDS011;9086;50.966;3.144;2023-04-24T03:51:00;268.17;;;258.73;;
17921;SDS011;9086;50.966;3.144;2023-04-24T03:53:26;274.40;;;265.07;;
17921;SDS011;9086;50.966;3.144;2023-04-24T03:55:52;246.63;;;238.17;;
17921;SDS011;9086;50.966;3.144;2023-04-24T03:58:21;250.10;;;241.43;;
17921;SDS011;9086;50.966;3.144;2023-04-24T04:00:47;241.93;;;233.43;;
17921;SDS011;9086;50.966;3.144;2023-04-24T04:03:13;226.83;;;219.07;;
17921;SDS011;9086;50.966;3.144;2023-04-24T04:05:39;223.47;;;215.43;;
17921;SDS011;9086;50.966;3.144;2023-04-24T04:08:05;205.73;;;198.47;;
17921;SDS011;9086;50.966;3.144;2023-04-24T04:10:31;187.53;;;180.13;;
17921;SDS011;9086;50.966;3.144;2023-04-24T04:12:57;184.37;;;177.43;;
17921;SDS011;9086;50.966;3.144;2023-04-24T04:15:23;168.57;;;161.83;;
17921;SDS011;9086;50.966;3.144;2023-04-24T04:17:49;151.73;;;145.47;;
17921;SDS011;9086;50.966;3.144;2023-04-24T04:20:17;143.90;;;138.13;;
17921;SDS011;9086;50.966;3.144;2023-04-24T04:22:52;142.40;;;136.13;;
17921;SDS011;9086;50.966;3.144;2023-04-24T04:25:20;126.63;;;120.93;;
17921;SDS011;9086;50.966;3.144;2023-04-24T04:27:49;134.87;;;129.03;;
17921;SDS011;9086;50.966;3.144;2023-04-24T04:30:16;128.13;;;123.07;;
17921;SDS011;9086;50.966;3.144;2023-04-24T04:32:45;136.17;;;129.93;;
17921;SDS011;9086;50.966;3.144;2023-04-24T04:35:16;131.27;;;125.30;;
17921;SDS011;9086;50.966;3.144;2023-04-24T04:37:42;145.60;;;139.73;;
17921;SDS011;9086;50.966;3.144;2023-04-24T04:40:09;141.43;;;134.50;;
17921;SDS011;9086;50.966;3.144;2023-04-24T04:42:37;161.67;;;155.10;;
17921;SDS011;9086;50.966;3.144;2023-04-24T04:45:07;154.87;;;148.47;;
17921;SDS011;9086;50.966;3.144;2023-04-24T04:47:34;157.73;;;150.83;;
17921;SDS011;9086;50.966;3.144;2023-04-24T04:50:11;153.03;;;146.57;;
17921;SDS011;9086;50.966;3.144;2023-04-24T04:52:38;160.37;;;153.83;;
17921;SDS011;9086;50.966;3.144;2023-04-24T04:55:04;156.63;;;150.13;;
17921;SDS011;9086;50.966;3.144;2023-04-24T04:57:38;168.03;;;160.63;;
17921;SDS011;9086;50.966;3.144;2023-04-24T05:00:04;157.90;;;151.40;;
17921;SDS011;9086;50.966;3.144;2023-04-24T05:02:32;169.77;;;162.83;;
17921;SDS011;9086;50.966;3.144;2023-04-24T05:04:58;166.10;;;159.37;;
17921;SDS011;9086;50.966;3.144;2023-04-24T05:07:27;138.40;;;131.87;;
17921;SDS011;9086;50.966;3.144;2023-04-24T05:09:53;145.17;;;139.03;;
17921;SDS011;9086;50.966;3.144;2023-04-24T05:12:19;152.10;;;145.80;;
17921;SDS011;9086;50.966;3.144;2023-04-24T05:14:45;157.13;;;150.23;;
17921;SDS011;9086;50.966;3.144;2023-04-24T05:17:11;148.57;;;142.27;;
17921;SDS011;9086;50.966;3.144;2023-04-24T05:19:37;143.70;;;137.37;;
17921;SDS011;9086;50.966;3.144;2023-04-24T05:22:05;142.33;;;135.87;;
17921;SDS011;9086;50.966;3.144;2023-04-24T05:24:35;146.57;;;140.27;;
17921;SDS011;9086;50.966;3.144;2023-04-24T05:27:04;146.63;;;140.13;;
17921;SDS011;9086;50.966;3.144;2023-04-24T05:29:30;145.73;;;139.40;;
17921;SDS011;9086;50.966;3.144;2023-04-24T05:31:58;136.70;;;130.13;;
17921;SDS011;9086;50.966;3.144;2023-04-24T05:34:36;133.30;;;127.60;;
17921;SDS011;9086;50.966;3.144;2023-04-24T05:37:04;141.20;;;135.00;;
17921;SDS011;9086;50.966;3.144;2023-04-24T05:39:33;117.87;;;112.27;;
17921;SDS011;9086;50.966;3.144;2023-04-24T05:42:00;119.07;;;113.20;;
17921;SDS011;9086;50.966;3.144;2023-04-24T05:44:31;130.47;;;124.50;;
17921;SDS011;9086;50.966;3.144;2023-04-24T05:46:59;126.43;;;120.67;;
17921;SDS011;9086;50.966;3.144;2023-04-24T05:49:27;121.03;;;115.43;;
17921;SDS011;9086;50.966;3.144;2023-04-24T05:51:53;112.17;;;106.33;;
17921;SDS011;9086;50.966;3.144;2023-04-24T05:54:19;118.03;;;112.67;;
17921;SDS011;9086;50.966;3.144;2023-04-24T05:56:45;108.93;;;104.10;;
17921;SDS011;9086;50.966;3.144;2023-04-24T05:59:11;109.50;;;104.47;;
17921;SDS011;9086;50.966;3.144;2023-04-24T06:01:42;91.57;;;87.10;;
17921;SDS011;9086;50.966;3.144;2023-04-24T06:04:13;92.07;;;87.60;;
17921;SDS011;9086;50.966;3.144;2023-04-24T06:06:44;77.70;;;73.80;;
17921;SDS011;9086;50.966;3.144;2023-04-24T06:09:21;82.87;;;78.73;;
17921;SDS011;9086;50.966;3.144;2023-04-24T06:11:47;70.87;;;66.87;;
17921;SDS011;9086;50.966;3.144;2023-04-24T06:14:13;73.53;;;69.80;;
17921;SDS011;9086;50.966;3.144;2023-04-24T06:16:40;61.77;;;57.97;;
17921;SDS011;9086;50.966;3.144;2023-04-24T06:19:08;64.90;;;61.20;;
17921;SDS011;9086;50.966;3.144;2023-04-24T06:21:41;61.43;;;58.13;;
17921;SDS011;9086;50.966;3.144;2023-04-24T06:24:07;62.77;;;58.97;;
17921;SDS011;9086;50.966;3.144;2023-04-24T06:26:33;66.37;;;63.13;;
17921;SDS011;9086;50.966;3.144;2023-04-24T06:29:01;63.80;;;60.13;;
17921;SDS011;9086;50.966;3.144;2023-04-24T06:31:32;65.43;;;62.07;;
17921;SDS011;9086;50.966;3.144;2023-04-24T06:34:02;60.17;;;56.27;;
17921;SDS011;9086;50.966;3.144;2023-04-24T06:36:28;50.67;;;47.80;;
17921;SDS011;9086;50.966;3.144;2023-04-24T06:38:56;45.80;;;43.00;;
17921;SDS011;9086;50.966;3.144;2023-04-24T06:41:22;48.20;;;45.20;;
17921;SDS011;9086;50.966;3.144;2023-04-24T06:43:48;40.90;;;38.33;;
17921;SDS011;9086;50.966;3.144;2023-04-24T06:46:14;37.37;;;34.77;;
17921;SDS011;9086;50.966;3.144;2023-04-24T06:48:43;31.77;;;29.17;;
17921;SDS011;9086;50.966;3.144;2023-04-24T06:51:09;33.20;;;30.93;;
17921;SDS011;9086;50.966;3.144;2023-04-24T06:53:37;31.60;;;29.33;;
17921;SDS011;9086;50.966;3.144;2023-04-24T06:56:03;35.23;;;33.00;;
17921;SDS011;9086;50.966;3.144;2023-04-24T06:58:30;33.00;;;30.40;;
17921;SDS011;9086;50.966;3.144;2023-04-24T07:00:56;34.97;;;32.87;;
17921;SDS011;9086;50.966;3.144;2023-04-24T07:03:34;29.17;;;27.33;;
17921;SDS011;9086;50.966;3.144;2023-04-24T07:06:00;26.17;;;24.37;;
17921;SDS011;9086;50.966;3.144;2023-04-24T07:08:28;23.10;;;21.37;;
17921;SDS011;9086;50.966;3.144;2023-04-24T07:10:58;19.37;;;17.97;;
17921;SDS011;9086;50.966;3.144;2023-04-24T07:13:24;15.87;;;14.33;;
17921;SDS011;9086;50.966;3.144;2023-04-24T07:15:51;13.10;;;11.80;;
17921;SDS011;9086;50.966;3.144;2023-04-24T07:18:19;12.67;;;10.63;;
17921;SDS011;9086;50.966;3.144;2023-04-24T07:20:45;12.03;;;9.93;;
17921;SDS011;9086;50.966;3.144;2023-04-24T07:23:17;9.67;;;8.50;;
17921;SDS011;9086;50.966;3.144;2023-04-24T07:25:51;11.40;;;8.00;;
17921;SDS011;9086;50.966;3.144;2023-04-24T07:28:21;8.47;;;6.13;;
17921;SDS011;9086;50.966;3.144;2023-04-24T07:30:47;11.70;;;6.37;;
17921;SDS011;9086;50.966;3.144;2023-04-24T07:33:13;8.47;;;5.73;;
17921;SDS011;9086;50.966;3.144;2023-04-24T07:35:39;8.50;;;6.37;;
17921;SDS011;9086;50.966;3.144;2023-04-24T07:38:05;9.10;;;4.67;;
17921;SDS011;9086;50.966;3.144;2023-04-24T07:40:34;10.40;;;5.07;;
17921;SDS011;9086;50.966;3.144;2023-04-24T07:43:03;12.47;;;5.77;;
17921;SDS011;9086;50.966;3.144;2023-04-24T07:45:29;11.73;;;5.47;;
17921;SDS011;9086;50.966;3.144;2023-04-24T07:47:56;7.90;;;5.20;;
17921;SDS011;9086;50.966;3.144;2023-04-24T07:50:22;10.40;;;5.10;;
17921;SDS011;9086;50.966;3.144;2023-04-24T07:52:48;11.50;;;5.67;;
17921;SDS011;9086;50.966;3.144;2023-04-24T07:55:16;11.70;;;5.90;;
17921;SDS011;9086;50.966;3.144;2023-04-24T07:57:42;8.33;;;4.27;;
17921;SDS011;9086;50.966;3.144;2023-04-24T08:00:11;10.70;;;4.70;;
17921;SDS011;9086;50.966;3.144;2023-04-24T08:02:39;8.00;;;4.83;;
17921;SDS011;9086;50.966;3.144;2023-04-24T08:05:05;7.67;;;4.30;;
17921;SDS011;9086;50.966;3.144;2023-04-24T08:07:31;7.07;;;4.70;;
17921;SDS011;9086;50.966;3.144;2023-04-24T08:09:58;6.40;;;3.87;;
17921;SDS011;9086;50.966;3.144;2023-04-24T08:12:24;7.00;;;4.10;;
17921;SDS011;9086;50.966;3.144;2023-04-24T08:14:51;11.77;;;4.63;;
17921;SDS011;9086;50.966;3.144;2023-04-24T08:17:17;7.00;;;4.73;;
17921;SDS011;9086;50.966;3.144;2023-04-24T08:19:43;8.73;;;4.80;;
17921;SDS011;9086;50.966;3.144;2023-04-24T08:22:16;9.20;;;5.20;;
17921;SDS011;9086;50.966;3.144;2023-04-24T08:24:42;10.87;;;5.30;;
17921;SDS011;9086;50.966;3.144;2023-04-24T08:27:09;11.40;;;5.53;;
17921;SDS011;9086;50.966;3.144;2023-04-24T08:29:35;10.60;;;6.47;;
17921;SDS011;9086;50.966;3.144;2023-04-24T08:32:02;11.13;;;5.90;;
17921;SDS011;9086;50.966;3.144;2023-04-24T08:34:28;10.90;;;6.30;;
17921;SDS011;9086;50.966;3.144;2023-04-24T08:36:54;10.83;;;5.03;;
17921;SDS011;9086;50.966;3.144;2023-04-24T08:39:20;9.67;;;6.20;;
17921;SDS011;9086;50.966;3.144;2023-04-24T08:41:46;12.30;;;6.97;;
17921;SDS011;9086;50.966;3.144;2023-04-24T08:44:14;10.23;;;6.90;;
17921;SDS011;9086;50.966;3.144;2023-04-24T08:46:41;13.50;;;7.93;;
17921;SDS011;9086;50.966;3.144;2023-04-24T08:49:08;9.57;;;7.40;;
17921;SDS011;9086;50.966;3.144;2023-04-24T08:51:37;10.60;;;8.07;;
17921;SDS011;9086;50.966;3.144;2023-04-24T08:54:03;13.90;;;8.10;;
17921;SDS011;9086;50.966;3.144;2023-04-24T08:56:35;11.53;;;7.37;;
17921;SDS011;9086;50.966;3.144;2023-04-24T08:59:06;10.47;;;7.40;;
17921;SDS011;9086;50.966;3.144;2023-04-24T09:01:34;10.37;;;8.00;;
17921;SDS011;9086;50.966;3.144;2023-04-24T09:04:02;11.07;;;7.23;;
17921;SDS011;9086;50.966;3.144;2023-04-24T09:06:29;10.27;;;6.87;;
17921;SDS011;9086;50.966;3.144;2023-04-24T09:08:57;11.33;;;7.40;;
17921;SDS011;9086;50.966;3.144;2023-04-24T09:11:26;11.80;;;7.47;;
17921;SDS011;9086;50.966;3.144;2023-04-24T09:13:53;13.73;;;7.60;;
17921;SDS011;9086;50.966;3.144;2023-04-24T09:16:19;12.03;;;6.73;;
17921;SDS011;9086;50.966;3.144;2023-04-24T09:18:48;7.33;;;6.37;;
17921;SDS011;9086;50.966;3.144;2023-04-24T09:21:14;9.07;;;6.80;;
17921;SDS011;9086;50.966;3.144;2023-04-24T09:23:42;8.63;;;6.17;;
17921;SDS011;9086;50.966;3.144;2023-04-24T09:26:11;10.33;;;6.43;;
17921;SDS011;9086;50.966;3.144;2023-04-24T09:28:45;9.63;;;6.90;;
17921;SDS011;9086;50.966;3.144;2023-04-24T09:31:15;9.10;;;6.77;;
17921;SDS011;9086;50.966;3.144;2023-04-24T09:36:28;9.37;;;6.50;;
17921;SDS011;9086;50.966;3.144;2023-04-24T09:38:58;8.53;;;6.57;;
17921;SDS011;9086;50.966;3.144;2023-04-24T09:41:24;14.63;;;7.30;;
17921;SDS011;9086;50.966;3.144;2023-04-24T09:43:53;10.93;;;7.33;;
17921;SDS011;9086;50.966;3.144;2023-04-24T09:46:28;12.47;;;7.47;;
17921;SDS011;9086;50.966;3.144;2023-04-24T09:48:54;10.80;;;7.43;;
17921;SDS011;9086;50.966;3.144;2023-04-24T09:51:32;8.53;;;7.07;;
17921;SDS011;9086;50.966;3.144;2023-04-24T09:54:04;14.67;;;8.13;;
17921;SDS011;9086;50.966;3.144;2023-04-24T09:56:34;11.13;;;7.90;;
17921;SDS011;9086;50.966;3.144;2023-04-24T09:59:06;9.73;;;6.60;;
17921;SDS011;9086;50.966;3.144;2023-04-24T10:01:40;11.40;;;7.73;;
17921;SDS011;9086;50.966;3.144;2023-04-24T10:06:42;11.17;;;7.20;;
17921;SDS011;9086;50.966;3.144;2023-04-24T10:09:08;8.03;;;6.53;;
17921;SDS011;9086;50.966;3.144;2023-04-24T10:11:40;11.93;;;6.53;;
17921;SDS011;9086;50.966;3.144;2023-04-24T10:14:13;10.27;;;6.53;;
17921;SDS011;9086;50.966;3.144;2023-04-24T10:16:40;10.57;;;6.03;;
17921;SDS011;9086;50.966;3.144;2023-04-24T10:19:09;7.27;;;5.87;;
17921;SDS011;9086;50.966;3.144;2023-04-24T10:21:37;8.27;;;5.60;;
17921;SDS011;9086;50.966;3.144;2023-04-24T10:24:07;11.60;;;6.50;;
17921;SDS011;9086;50.966;3.144;2023-04-24T10:26:34;9.37;;;5.97;;
17921;SDS011;9086;50.966;3.144;2023-04-24T10:29:00;6.90;;;5.90;;
17921;SDS011;9086;50.966;3.144;2023-04-24T10:31:31;8.47;;;5.73;;
17921;SDS011;9086;50.966;3.144;2023-04-24T10:34:03;9.60;;;6.47;;
17921;SDS011;9086;50.966;3.144;2023-04-24T10:36:30;10.10;;;6.77;;
17921;SDS011;9086;50.966;3.144;2023-04-24T10:38:57;12.63;;;5.47;;
17921;SDS011;9086;50.966;3.144;2023-04-24T10:41:27;10.97;;;6.03;;
17921;SDS011;9086;50.966;3.144;2023-04-24T10:44:05;8.00;;;4.27;;
17921;SDS011;9086;50.966;3.144;2023-04-24T10:46:31;7.83;;;4.67;;
17921;SDS011;9086;50.966;3.144;2023-04-24T10:48:57;6.70;;;5.30;;
17921;SDS011;9086;50.966;3.144;2023-04-24T10:51:47;5.97;;;4.27;;
17921;SDS011;9086;50.966;3.144;2023-04-24T10:54:34;6.03;;;3.97;;
17921;SDS011;9086;50.966;3.144;2023-04-24T10:59:48;8.27;;;4.40;;
17921;SDS011;9086;50.966;3.144;2023-04-24T11:02:17;6.10;;;4.50;;
17921;SDS011;9086;50.966;3.144;2023-04-24T11:04:44;7.20;;;3.87;;
17921;SDS011;9086;50.966;3.144;2023-04-24T11:07:10;6.40;;;4.57;;
17921;SDS011;9086;50.966;3.144;2023-04-24T11:09:46;7.73;;;4.27;;
17921;SDS011;9086;50.966;3.144;2023-04-24T11:12:14;9.77;;;3.87;;
17921;SDS011;9086;50.966;3.144;2023-04-24T11:20:08;6.83;;;3.70;;
17921;SDS011;9086;50.966;3.144;2023-04-24T11:22:40;8.87;;;3.67;;
17921;SDS011;9086;50.966;3.144;2023-04-24T11:25:10;7.27;;;4.00;;
17921;SDS011;9086;50.966;3.144;2023-04-24T11:27:42;5.33;;;3.73;;
17921;SDS011;9086;50.966;3.144;2023-04-24T11:30:12;7.07;;;3.23;;
17921;SDS011;9086;50.966;3.144;2023-04-24T11:32:42;5.33;;;3.37;;
17921;SDS011;9086;50.966;3.144;2023-04-24T11:35:15;5.53;;;2.83;;
17921;SDS011;9086;50.966;3.144;2023-04-24T11:37:50;4.17;;;2.90;;
17921;SDS011;9086;50.966;3.144;2023-04-24T11:40:20;3.67;;;3.03;;
17921;SDS011;9086;50.966;3.144;2023-04-24T11:42:51;4.73;;;2.70;;
17921;SDS011;9086;50.966;3.144;2023-04-24T11:45:18;6.77;;;3.87;;
17921;SDS011;9086;50.966;3.144;2023-04-24T11:47:47;4.70;;;3.30;;
17921;SDS011;9086;50.966;3.144;2023-04-24T11:50:14;4.50;;;2.87;;
17921;SDS011;9086;50.966;3.144;2023-04-24T11:52:41;3.30;;;2.90;;
17921;SDS011;9086;50.966;3.144;2023-04-24T11:55:07;4.97;;;3.03;;
17921;SDS011;9086;50.966;3.144;2023-04-24T11:57:34;5.07;;;2.83;;
17921;SDS011;9086;50.966;3.144;2023-04-24T12:00:03;5.83;;;3.00;;
17921;SDS011;9086;50.966;3.144;2023-04-24T12:02:32;6.90;;;3.53;;
17921;SDS011;9086;50.966;3.144;2023-04-24T12:04:59;5.30;;;3.13;;
17921;SDS011;9086;50.966;3.144;2023-04-24T12:07:25;4.50;;;2.70;;
17921;SDS011;9086;50.966;3.144;2023-04-24T12:09:55;3.70;;;2.53;;
17921;SDS011;9086;50.966;3.144;2023-04-24T12:12:23;4.33;;;2.90;;
17921;SDS011;9086;50.966;3.144;2023-04-24T12:14:56;4.50;;;2.27;;
17921;SDS011;9086;50.966;3.144;2023-04-24T12:17:26;3.80;;;2.27;;
17921;SDS011;9086;50.966;3.144;2023-04-24T12:19:52;3.23;;;2.33;;
17921;SDS011;9086;50.966;3.144;2023-04-24T12:22:18;5.53;;;2.90;;
17921;SDS011;9086;50.966;3.144;2023-04-24T12:25:01;4.13;;;2.20;;
17921;SDS011;9086;50.966;3.144;2023-04-24T12:27:33;3.90;;;2.33;;
17921;SDS011;9086;50.966;3.144;2023-04-24T12:30:05;5.83;;;2.10;;
17921;SDS011;9086;50.966;3.144;2023-04-24T12:32:31;3.40;;;2.00;;
17921;SDS011;9086;50.966;3.144;2023-04-24T12:35:05;4.33;;;2.50;;
17921;SDS011;9086;50.966;3.144;2023-04-24T12:37:32;4.33;;;2.73;;
17921;SDS011;9086;50.966;3.144;2023-04-24T12:42:34;3.77;;;2.33;;
17921;SDS011;9086;50.966;3.144;2023-04-24T12:45:01;5.03;;;2.77;;
17921;SDS011;9086;50.966;3.144;2023-04-24T12:47:28;3.60;;;2.53;;
17921;SDS011;9086;50.966;3.144;2023-04-24T12:49:57;2.87;;;2.10;;
17921;SDS011;9086;50.966;3.144;2023-04-24T12:52:31;4.53;;;2.57;;
17921;SDS011;9086;50.966;3.144;2023-04-24T12:54:59;2.30;;;2.03;;
17921;SDS011;9086;50.966;3.144;2023-04-24T12:57:26;3.33;;;1.97;;
17921;SDS011;9086;50.966;3.144;2023-04-24T12:59:53;6.03;;;2.23;;
17921;SDS011;9086;50.966;3.144;2023-04-24T13:02:22;3.00;;;1.87;;
17921;SDS011;9086;50.966;3.144;2023-04-24T13:04:51;1.97;;;1.77;;
17921;SDS011;9086;50.966;3.144;2023-04-24T13:07:24;4.80;;;1.70;;
17921;SDS011;9086;50.966;3.144;2023-04-24T13:09:51;2.47;;;1.57;;
17921;SDS011;9086;50.966;3.144;2023-04-24T13:12:22;3.43;;;1.50;;
17921;SDS011;9086;50.966;3.144;2023-04-24T13:14:51;4.40;;;2.10;;
17921;SDS011;9086;50.966;3.144;2023-04-24T13:17:17;2.80;;;1.60;;
17921;SDS011;9086;50.966;3.144;2023-04-24T13:19:44;2.83;;;1.40;;
17921;SDS011;9086;50.966;3.144;2023-04-24T13:22:13;1.70;;;1.40;;
17921;SDS011;9086;50.966;3.144;2023-04-24T13:24:39;3.27;;;1.60;;
17921;SDS011;9086;50.966;3.144;2023-04-24T13:27:06;2.43;;;1.60;;
17921;SDS011;9086;50.966;3.144;2023-04-24T13:29:32;3.53;;;1.70;;
17921;SDS011;9086;50.966;3.144;2023-04-24T13:32:05;2.07;;;1.80;;
17921;SDS011;9086;50.966;3.144;2023-04-24T13:34:31;2.90;;;1.90;;
17921;SDS011;9086;50.966;3.144;2023-04-24T13:37:02;2.93;;;1.97;;
17921;SDS011;9086;50.966;3.144;2023-04-24T13:39:29;2.67;;;1.60;;
17921;SDS011;9086;50.966;3.144;2023-04-24T13:41:58;2.13;;;1.83;;
17921;SDS011;9086;50.966;3.144;2023-04-24T13:44:26;2.70;;;1.70;;
17921;SDS011;9086;50.966;3.144;2023-04-24T13:46:53;3.43;;;1.77;;
17921;SDS011;9086;50.966;3.144;2023-04-24T13:49:22;2.73;;;1.70;;
17921;SDS011;9086;50.966;3.144;2023-04-24T13:51:53;2.30;;;1.67;;
17921;SDS011;9086;50.966;3.144;2023-04-24T13:54:22;2.43;;;1.70;;
17921;SDS011;9086;50.966;3.144;2023-04-24T13:56:50;3.93;;;1.90;;
17921;SDS011;9086;50.966;3.144;2023-04-24T13:59:21;3.43;;;2.03;;
17921;SDS011;9086;50.966;3.144;2023-04-24T14:01:47;4.33;;;1.90;;
17921;SDS011;9086;50.966;3.144;2023-04-24T14:04:18;3.13;;;2.13;;
17921;SDS011;9086;50.966;3.144;2023-04-24T14:06:44;3.40;;;2.10;;
17921;SDS011;9086;50.966;3.144;2023-04-24T14:09:17;1.73;;;1.60;;
17921;SDS011;9086;50.966;3.144;2023-04-24T14:11:43;2.57;;;1.93;;
17921;SDS011;9086;50.966;3.144;2023-04-24T14:14:12;4.70;;;1.90;;
17921;SDS011;9086;50.966;3.144;2023-04-24T14:16:40;3.47;;;1.83;;
17921;SDS011;9086;50.966;3.144;2023-04-24T14:19:06;3.30;;;1.70;;
17921;SDS011;9086;50.966;3.144;2023-04-24T14:21:33;2.37;;;2.10;;
17921;SDS011;9086;50.966;3.144;2023-04-24T14:23:59;2.20;;;2.00;;
17921;SDS011;9086;50.966;3.144;2023-04-24T14:26:30;2.23;;;1.43;;
17921;SDS011;9086;50.966;3.144;2023-04-24T14:28:56;3.73;;;1.80;;
17921;SDS011;9086;50.966;3.144;2023-04-24T14:31:27;2.30;;;1.77;;
17921;SDS011;9086;50.966;3.144;2023-04-24T14:33:55;3.33;;;1.83;;
17921;SDS011;9086;50.966;3.144;2023-04-24T14:36:22;2.43;;;1.97;;
17921;SDS011;9086;50.966;3.144;2023-04-24T14:38:49;3.10;;;1.70;;
17921;SDS011;9086;50.966;3.144;2023-04-24T14:41:17;3.47;;;1.70;;
17921;SDS011;9086;50.966;3.144;2023-04-24T14:43:43;2.70;;;1.60;;
17921;SDS011;9086;50.966;3.144;2023-04-24T14:46:09;1.87;;;1.50;;
17921;SDS011;9086;50.966;3.144;2023-04-24T14:48:35;2.03;;;1.63;;
17921;SDS011;9086;50.966;3.144;2023-04-24T14:51:01;4.60;;;2.13;;
17921;SDS011;9086;50.966;3.144;2023-04-24T14:53:30;3.27;;;2.00;;
17921;SDS011;9086;50.966;3.144;2023-04-24T14:56:05;2.33;;;1.67;;
17921;SDS011;9086;50.966;3.144;2023-04-24T14:58:34;4.33;;;1.40;;
17921;SDS011;9086;50.966;3.144;2023-04-24T15:01:00;4.10;;;1.70;;
17921;SDS011;9086;50.966;3.144;2023-04-24T15:03:26;3.33;;;1.70;;